Time;durP1;ratioP1;P1;durP2;ratioP2;P2;SDS_P1;SDS_P2;PMS_P1;PMS_P2;Temp;Humidity;BMP_temperature;BMP_pressure;BME280_temperature;BME280_humidity;BME280_pressure;Samples;Min_cycle;Max_cycle;Signal;HPM_P1;HPM_P2
2022/08/09 00:01:48;;;;;;;2.03;1.80;;;;;;;14.10;88.75;101694.81;4990520;28;20713;-72
2022/08/09 00:04:15;;;;;;;2.70;2.00;;;;;;;14.03;89.15;101694.09;4986725;28;20214;-72
2022/08/09 00:06:41;;;;;;;1.60;1.50;;;;;;;14.01;89.74;101695.91;4989270;28;20232;-72
2022/08/09 00:09:08;;;;;;;2.20;1.90;;;;;;;13.96;90.55;101689.91;4996185;28;20203;-72
2022/08/09 00:11:34;;;;;;;8.40;1.70;;;;;;;14.04;91.12;101694.97;4991109;28;20227;-72
2022/08/09 00:14:01;;;;;;;2.67;1.70;;;;;;;13.92;90.56;101691.72;4993553;28;20217;-72
2022/08/09 00:16:28;;;;;;;2.50;1.87;;;;;;;13.82;89.80;101695.44;4994958;28;20211;-70
2022/08/09 00:18:55;;;;;;;5.77;2.13;;;;;;;13.80;91.77;101692.00;4994962;28;20204;-72
2022/08/09 00:21:22;;;;;;;2.43;1.97;;;;;;;13.76;91.40;101688.59;4989438;28;20643;-70
2022/08/09 00:23:48;;;;;;;3.47;1.67;;;;;;;13.95;94.66;101696.06;4988185;28;20239;-71
2022/08/09 00:26:15;;;;;;;2.00;1.80;;;;;;;13.73;91.37;101687.81;4984599;28;20216;-72
2022/08/09 00:28:41;;;;;;;3.20;1.87;;;;;;;13.75;92.75;101692.09;5003765;28;20206;-72
2022/08/09 00:31:08;;;;;;;5.47;2.07;;;;;;;13.64;91.33;101684.47;4989278;28;20198;-72
2022/08/09 00:33:35;;;;;;;2.37;1.77;;;;;;;13.78;94.89;101692.03;4999622;28;20202;-71
2022/08/09 00:36:04;;;;;;;2.60;2.00;;;;;;;13.65;93.20;101693.22;5005409;28;20214;-72
2022/08/09 00:38:31;;;;;;;2.20;1.90;;;;;;;13.60;93.59;101692.47;5002728;28;20198;-71
2022/08/09 00:40:57;;;;;;;2.30;1.80;;;;;;;13.48;91.96;101693.59;4999505;28;20693;-72
2022/08/09 00:43:24;;;;;;;2.03;1.87;;;;;;;13.56;94.83;101694.28;5000698;28;20225;-72
2022/08/09 00:45:51;;;;;;;2.33;1.80;;;;;;;13.54;94.02;101693.44;5008627;28;20302;-72
2022/08/09 00:48:17;;;;;;;2.03;1.83;;;;;;;13.50;95.06;101690.94;5011177;28;20211;-71
2022/08/09 00:50:44;;;;;;;2.43;1.80;;;;;;;13.49;94.92;101700.56;5006453;28;20205;-72
2022/08/09 00:53:12;;;;;;;2.47;2.00;;;;;;;13.49;94.40;101700.56;5012273;28;20253;-72
2022/08/09 00:55:40;;;;;;;2.20;2.00;;;;;;;13.48;94.59;101693.59;4996766;28;20255;-70
2022/08/09 00:58:07;;;;;;;2.87;1.80;;;;;;;13.44;95.39;101703.25;5003998;28;20219;-70
2022/08/09 01:00:35;;;;;;;2.00;1.80;;;;;;;13.40;94.47;101708.59;5001182;28;20222;-72
2022/08/09 01:03:11;;;;;;;2.23;2.00;;;;;;;13.38;94.29;101703.38;5001418;28;20247;-72
2022/08/09 01:05:42;;;;;;;2.50;2.13;;;;;;;13.52;96.93;101703.09;5006502;28;20220;-72
2022/08/09 01:08:18;;;;;;;2.40;2.07;;;;;;;13.42;94.37;101706.78;4997489;28;20272;-72
2022/08/09 01:10:53;;;;;;;6.47;1.90;;;;;;;13.41;95.99;101708.56;5006016;28;20550;-72
2022/08/09 01:13:31;;;;;;;2.63;1.70;;;;;;;13.38;94.95;101703.38;5010605;28;20288;-70
2022/08/09 01:16:00;;;;;;;9.27;2.07;;;;;;;13.47;96.46;101693.59;5006508;28;20316;-72
2022/08/09 01:18:30;;;;;;;2.43;1.90;;;;;;;13.68;98.07;101694.91;5007186;28;20201;-72
2022/08/09 01:21:08;;;;;;;2.43;1.90;;;;;;;13.50;94.32;101701.41;5007250;28;20619;-72
2022/08/09 01:23:53;;;;;;;2.53;1.83;;;;;;;13.46;94.55;101702.38;5003085;28;20204;-72
2022/08/09 01:26:36;;;;;;;2.30;2.10;;;;;;;13.44;95.74;101705.88;5003876;28;20702;-72
2022/08/09 01:29:05;;;;;;;2.40;1.83;;;;;;;13.46;95.29;101703.25;5001865;28;20207;-72
2022/08/09 01:31:35;;;;;;;5.13;1.97;;;;;;;13.38;95.23;101700.75;4985395;28;20268;-71
2022/08/09 01:34:05;;;;;;;3.00;2.10;;;;;;;13.40;97.22;101693.75;5004364;28;20215;-72
2022/08/09 01:36:33;;;;;;;4.37;1.90;;;;;;;13.38;97.80;101698.13;5009639;28;20592;-72
2022/08/09 01:39:02;;;;;;;2.80;2.20;;;;;;;13.42;98.62;101697.19;5006197;28;20281;-72
2022/08/09 01:41:31;;;;;;;6.93;2.40;;;;;;;13.25;96.76;101705.34;5015307;28;20225;-72
2022/08/09 01:44:01;;;;;;;2.33;2.13;;;;;;;13.29;97.53;101705.31;5007595;28;20201;-72
2022/08/09 01:46:30;;;;;;;2.07;1.77;;;;;;;13.24;97.54;101701.03;5003296;28;20220;-73
2022/08/09 01:49:00;;;;;;;2.63;2.17;;;;;;;13.27;99.64;101700.09;5016888;28;20300;-71
2022/08/09 01:51:28;;;;;;;1.97;1.83;;;;;;;13.15;98.08;101709.06;5000340;28;20927;-72
2022/08/09 01:53:57;;;;;;;4.93;2.00;;;;;;;13.12;98.51;101706.50;5003930;28;20218;-72
2022/08/09 01:56:26;;;;;;;3.03;1.93;;;;;;;13.14;99.17;101706.47;5014051;28;20233;-69
2022/08/09 01:58:55;;;;;;;3.03;2.00;;;;;;;13.09;98.12;101706.56;5003357;28;20219;-71
2022/08/09 02:01:26;;;;;;;3.43;2.10;;;;;;;13.01;97.50;101711.06;4995523;28;20246;-71
2022/08/09 02:03:56;;;;;;;4.10;1.93;;;;;;;13.01;98.30;101705.84;5004344;28;20224;-72
2022/08/09 02:09:05;;;;;;;2.73;1.83;;;;;;;12.97;98.25;101709.41;5002551;28;20210;-73
2022/08/09 02:11:32;;;;;;;3.57;2.00;;;;;;;12.97;98.66;101714.66;5002971;28;20315;-73
2022/08/09 02:14:00;;;;;;;3.57;2.00;;;;;;;13.01;100.00;101703.22;5012042;28;20237;-69
2022/08/09 02:16:32;;;;;;;4.03;2.00;;;;;;;12.99;100.00;101708.47;5009537;28;20207;-71
2022/08/09 02:18:59;;;;;;;2.10;1.83;;;;;;;12.90;100.00;101710.44;5007662;28;20201;-72
2022/08/09 02:21:27;;;;;;;2.43;2.07;;;;;;;12.89;100.00;101706.94;5002857;28;20224;-72
2022/08/09 02:23:56;;;;;;;3.67;2.07;;;;;;;12.82;100.00;101702.69;5008427;28;20211;-72
2022/08/09 02:26:24;;;;;;;2.13;1.90;;;;;;;12.85;100.00;101702.66;4998109;28;20245;-72
2022/08/09 02:28:54;;;;;;;2.60;2.30;;;;;;;12.80;100.00;101714.94;5002018;28;20216;-72
2022/08/09 02:31:24;;;;;;;5.13;2.10;;;;;;;12.69;100.00;101707.28;4999510;28;20229;-72
2022/08/09 02:33:56;;;;;;;2.20;2.00;;;;;;;12.62;100.00;101706.53;5009074;28;20201;-70
2022/08/09 02:36:30;;;;;;;2.20;2.00;;;;;;;12.63;100.00;101707.41;5008245;28;20205;-72
2022/08/09 02:39:00;;;;;;;4.07;2.20;;;;;;;12.51;100.00;101708.50;5000753;28;20292;-72
2022/08/09 02:41:36;;;;;;;3.13;2.30;;;;;;;12.46;100.00;101710.31;5002210;28;20228;-72
2022/08/09 02:44:07;;;;;;;2.67;2.17;;;;;;;12.57;100.00;101705.75;5006911;28;20200;-72
2022/08/09 02:46:35;;;;;;;2.27;2.07;;;;;;;12.52;100.00;101712.81;5012357;28;20220;-73
2022/08/09 02:49:09;;;;;;;5.23;2.20;;;;;;;12.53;100.00;101709.31;5007094;28;20213;-72
2022/08/09 02:51:38;;;;;;;2.43;2.13;;;;;;;12.57;100.00;101707.50;5009894;28;20321;-72
2022/08/09 02:54:07;;;;;;;4.03;2.27;;;;;;;12.50;100.00;101711.97;5004653;28;20212;-71
2022/08/09 02:56:34;;;;;;;5.63;2.23;;;;;;;12.50;100.00;101720.72;5004013;28;20204;-72
2022/08/09 02:59:04;;;;;;;3.30;2.07;;;;;;;12.50;100.00;101718.09;4993972;28;20206;-72
2022/08/09 03:01:31;;;;;;;2.77;2.33;;;;;;;12.31;100.00;101716.66;5003689;28;20675;-72
2022/08/09 03:04:00;;;;;;;2.50;2.13;;;;;;;12.31;100.00;101714.03;5003027;28;20205;-72
2022/08/09 03:06:30;;;;;;;3.03;2.30;;;;;;;12.26;100.00;101718.47;5005658;28;20216;-72
2022/08/09 03:08:58;;;;;;;3.03;2.30;;;;;;;12.12;100.00;101719.56;5005127;28;20280;-72
2022/08/09 03:11:27;;;;;;;2.53;2.33;;;;;;;12.15;100.00;101717.78;4996161;28;20680;-72
2022/08/09 03:13:55;;;;;;;2.37;2.13;;;;;;;12.18;100.00;101709.91;4997545;28;20216;-72
2022/08/09 03:16:23;;;;;;;2.27;1.97;;;;;;;12.11;100.00;101715.19;5002027;28;20307;-72
2022/08/09 03:18:50;;;;;;;3.23;2.30;;;;;;;12.11;100.00;101709.13;4999907;28;20216;-72
2022/08/09 03:21:19;;;;;;;2.63;2.20;;;;;;;12.12;100.00;101703.88;4988734;28;20213;-72
2022/08/09 03:23:47;;;;;;;2.97;2.67;;;;;;;12.10;100.00;101716.09;4994902;28;20212;-72
2022/08/09 03:26:16;;;;;;;5.47;2.50;;;;;;;12.22;100.00;101709.81;4995280;28;20219;-73
2022/08/09 03:28:43;;;;;;;3.97;2.83;;;;;;;12.19;100.00;101706.38;4994813;28;20367;-72
2022/08/09 03:31:11;;;;;;;2.83;2.23;;;;;;;12.08;100.00;101722.22;5004124;28;20228;-72
2022/08/09 03:33:39;;;;;;;3.20;2.90;;;;;;;12.05;100.00;101714.47;4997613;28;20212;-71
2022/08/09 03:36:09;;;;;;;3.63;2.40;;;;;;;12.01;100.00;101716.22;4997266;28;20203;-72
2022/08/09 03:38:36;;;;;;;3.87;2.57;;;;;;;12.05;100.00;101712.69;5004376;28;20209;-72
2022/08/09 03:41:04;;;;;;;3.67;2.40;;;;;;;12.01;100.00;101720.59;4998321;28;20209;-70
2022/08/09 03:43:31;;;;;;;2.60;2.37;;;;;;;12.05;100.00;101722.31;4996599;28;20204;-72
2022/08/09 03:45:57;;;;;;;5.07;2.50;;;;;;;12.03;100.00;101724.94;4995126;28;20236;-70
2022/08/09 03:48:25;;;;;;;4.50;2.60;;;;;;;12.08;100.00;101730.06;4999350;28;20205;-71
2022/08/09 03:50:53;;;;;;;2.93;2.43;;;;;;;12.15;100.00;101726.47;4999171;28;20196;-71
2022/08/09 03:53:21;;;;;;;2.93;2.37;;;;;;;12.13;100.00;101725.63;4989215;28;20205;-73
2022/08/09 03:55:48;;;;;;;3.43;2.67;;;;;;;12.00;100.00;101732.81;4997725;28;20201;-72
2022/08/09 03:58:16;;;;;;;2.60;2.40;;;;;;;12.10;100.00;101731.78;5010792;28;20277;-72
2022/08/09 04:00:44;;;;;;;2.43;2.10;;;;;;;12.21;100.00;101733.38;5011614;28;20196;-71
2022/08/09 04:03:11;;;;;;;2.60;2.40;;;;;;;12.24;100.00;101731.59;4992363;28;20231;-72
2022/08/09 04:05:38;;;;;;;2.87;2.33;;;;;;;12.18;100.00;101736.91;5000125;28;20716;-71
2022/08/09 04:08:04;;;;;;;4.30;2.40;;;;;;;12.18;100.00;101734.28;4997186;28;20201;-72
2022/08/09 04:10:31;;;;;;;2.87;2.43;;;;;;;12.22;100.00;101737.72;4999409;28;20201;-72
2022/08/09 04:13:00;;;;;;;3.00;2.53;;;;;;;12.28;100.00;101740.25;5006895;28;20224;-72
2022/08/09 04:15:27;;;;;;;3.17;2.73;;;;;;;12.22;100.00;101741.19;4999957;28;20273;-70
2022/08/09 04:17:54;;;;;;;5.23;2.60;;;;;;;12.31;100.00;101746.28;5013870;28;20571;-72
2022/08/09 04:20:20;;;;;;;2.60;2.40;;;;;;;12.51;100.00;101745.09;5001180;28;20197;-72
2022/08/09 04:22:47;;;;;;;3.87;2.33;;;;;;;12.52;100.00;101746.81;5007658;28;20235;-71
2022/08/09 04:25:13;;;;;;;2.80;2.47;;;;;;;12.44;100.00;101753.94;5008996;28;20546;-72
2022/08/09 04:27:40;;;;;;;2.80;2.50;;;;;;;12.51;100.00;101747.72;5011534;28;20693;-72
2022/08/09 04:30:10;;;;;;;8.33;2.80;;;;;;;12.50;100.00;101751.22;5013974;28;20573;-72
2022/08/09 04:32:37;;;;;;;3.23;2.63;;;;;;;12.46;100.00;101755.63;5000466;28;20321;-72
2022/08/09 04:35:06;;;;;;;2.83;2.53;;;;;;;12.64;100.00;101764.06;5010966;28;20216;-70
2022/08/09 04:37:33;;;;;;;3.80;3.10;;;;;;;12.66;100.00;101755.31;5008096;28;20193;-72
2022/08/09 04:39:59;;;;;;;4.33;2.30;;;;;;;12.64;100.00;101764.94;5004021;28;20201;-72
2022/08/09 04:42:28;;;;;;;2.83;2.27;;;;;;;12.85;100.00;101773.31;5019255;28;20233;-71
2022/08/09 04:44:54;;;;;;;4.60;2.30;;;;;;;12.84;100.00;101767.22;5002144;28;20275;-72
2022/08/09 04:47:21;;;;;;;3.50;2.63;;;;;;;13.01;100.00;101766.91;5000319;28;20213;-71
2022/08/09 04:49:48;;;;;;;5.33;2.43;;;;;;;12.96;100.00;101768.75;5008495;28;20200;-72
2022/08/09 04:52:15;;;;;;;2.87;2.57;;;;;;;12.99;100.00;101773.94;5009361;28;20212;-70
2022/08/09 04:54:42;;;;;;;2.90;2.60;;;;;;;12.93;100.00;101768.81;5000688;28;20205;-71
2022/08/09 04:57:08;;;;;;;3.03;2.63;;;;;;;12.90;100.00;101776.72;5016881;28;20200;-72
2022/08/09 04:59:34;;;;;;;3.43;2.60;;;;;;;12.84;100.00;101774.19;5001725;28;20205;-70
2022/08/09 05:02:01;;;;;;;4.97;3.10;;;;;;;13.13;100.00;101772.84;4994212;28;20228;-72
2022/08/09 05:04:27;;;;;;;4.73;2.43;;;;;;;13.05;100.00;101772.94;5000864;28;20678;-72
2022/08/09 05:06:55;;;;;;;3.10;2.57;;;;;;;13.11;100.00;101772.00;5000320;28;20232;-70
2022/08/09 05:09:22;;;;;;;3.20;2.90;;;;;;;13.10;100.00;101776.34;4996793;28;20701;-72
2022/08/09 05:11:48;;;;;;;2.77;2.57;;;;;;;13.12;100.00;101778.94;5001165;28;20233;-72
2022/08/09 05:14:14;;;;;;;3.33;2.80;;;;;;;13.32;100.00;101781.25;4996001;28;20197;-70
2022/08/09 05:16:41;;;;;;;2.90;2.60;;;;;;;13.28;100.00;101783.03;4998573;28;20547;-72
2022/08/09 05:19:07;;;;;;;3.20;2.73;;;;;;;13.41;100.00;101778.44;5000321;28;20698;-72
2022/08/09 05:21:34;;;;;;;3.30;3.00;;;;;;;13.59;100.00;101775.44;4998299;28;20235;-72
2022/08/09 05:24:03;;;;;;;4.67;3.30;;;;;;;13.76;100.00;101780.34;5001912;28;20236;-71
2022/08/09 05:26:29;;;;;;;2.93;2.40;;;;;;;13.79;100.00;101787.25;5004022;28;20292;-71
2022/08/09 05:28:56;;;;;;;3.97;2.93;;;;;;;13.81;100.00;101786.34;4991569;28;20210;-71
2022/08/09 05:31:22;;;;;;;3.00;2.70;;;;;;;13.85;100.00;101783.66;5008894;28;20244;-71
2022/08/09 05:33:48;;;;;;;2.37;2.17;;;;;;;14.05;100.00;101785.84;5000848;28;20197;-70
2022/08/09 05:36:15;;;;;;;3.90;2.93;;;;;;;14.04;100.00;101789.38;5006667;28;20204;-72
2022/08/09 05:38:41;;;;;;;2.47;2.20;;;;;;;14.08;100.00;101791.88;4998687;28;20199;-73
2022/08/09 05:41:09;;;;;;;3.87;2.97;;;;;;;14.17;100.00;101798.69;4994635;28;20685;-71
2022/08/09 05:43:35;;;;;;;6.87;2.87;;;;;;;13.99;97.59;101798.19;4993659;28;20382;-72
2022/08/09 05:46:02;;;;;;;3.10;2.20;;;;;;;14.12;99.38;101798.78;4992242;28;20206;-70
2022/08/09 05:48:29;;;;;;;4.13;2.50;;;;;;;14.30;99.76;101797.53;4989146;28;20209;-71
2022/08/09 05:50:55;;;;;;;2.90;2.60;;;;;;;14.53;98.18;101798.75;5005203;28;20211;-72
2022/08/09 05:53:22;;;;;;;3.77;2.80;;;;;;;14.59;98.86;101801.22;4998920;28;20252;-71
2022/08/09 05:55:48;;;;;;;3.27;2.50;;;;;;;14.67;96.54;101809.78;4994772;28;20216;-69
2022/08/09 05:58:16;;;;;;;3.07;2.50;;;;;;;14.78;95.74;101812.16;5009984;28;20199;-72
2022/08/09 06:00:42;;;;;;;3.57;2.53;;;;;;;14.99;98.52;101810.75;5000409;28;20192;-71
2022/08/09 06:03:09;;;;;;;2.67;2.30;;;;;;;15.03;95.16;101817.63;5006987;28;20225;-69
2022/08/09 06:05:35;;;;;;;3.53;2.53;;;;;;;15.26;95.27;101813.53;5010402;28;20264;-69
2022/08/09 06:08:02;;;;;;;4.07;2.97;;;;;;;15.33;91.98;101818.59;4997973;28;20678;-72
2022/08/09 06:10:37;;;;;;;3.30;2.63;;;;;;;15.50;91.25;101830.41;5003258;28;20204;-71
2022/08/09 06:13:04;;;;;;;7.33;2.50;;;;;;;15.74;90.49;101828.00;4986925;28;20220;-72
2022/08/09 06:15:31;;;;;;;2.40;2.20;;;;;;;15.85;89.93;101829.44;4981695;28;20216;-72
2022/08/09 06:17:58;;;;;;;4.73;2.50;;;;;;;15.95;86.17;101837.06;5002653;28;20210;-72
2022/08/09 06:20:24;;;;;;;5.87;2.73;;;;;;;16.17;87.30;101837.28;4994736;28;20259;-72
2022/08/09 06:22:51;;;;;;;2.90;2.40;;;;;;;16.34;82.72;101839.41;4999493;28;20240;-72
2022/08/09 06:25:17;;;;;;;2.90;2.40;;;;;;;16.43;82.12;101842.63;4998575;28;20693;-71
2022/08/09 06:27:43;;;;;;;2.23;2.00;;;;;;;16.55;84.27;101843.13;4992734;28;20220;-72
2022/08/09 06:30:11;;;;;;;2.03;1.83;;;;;;;16.70;79.47;101837.38;4994438;28;20219;-73
2022/08/09 06:32:39;;;;;;;2.73;2.40;;;;;;;16.91;80.78;101840.25;4994004;28;20259;-67
2022/08/09 06:35:06;;;;;;;5.13;2.40;;;;;;;17.11;78.85;101850.09;4992807;28;20233;-67
2022/08/09 06:37:33;;;;;;;2.30;2.10;;;;;;;17.23;76.93;101857.59;4999864;28;20203;-67
2022/08/09 06:39:59;;;;;;;4.63;2.23;;;;;;;17.22;72.77;101859.38;4988602;28;20215;-67
2022/08/09 06:42:25;;;;;;;3.00;2.10;;;;;;;17.56;76.97;101849.41;4985989;28;20221;-67
2022/08/09 06:44:52;;;;;;;4.37;2.60;;;;;;;17.57;71.87;101862.56;4989696;28;20201;-69
2022/08/09 06:47:18;;;;;;;2.83;2.13;;;;;;;17.77;76.40;101861.81;4991182;28;20596;-68
2022/08/09 06:49:46;;;;;;;2.47;2.27;;;;;;;17.98;74.68;101859.34;4985407;28;20205;-67
2022/08/09 06:52:12;;;;;;;3.07;2.30;;;;;;;18.09;72.64;101866.84;4989041;28;20727;-69
2022/08/09 06:54:39;;;;;;;3.10;1.97;;;;;;;18.22;69.95;101854.03;4981559;28;20197;-67
2022/08/09 06:57:05;;;;;;;2.63;2.30;;;;;;;18.41;69.94;101856.81;4988873;28;20202;-69
2022/08/09 06:59:32;;;;;;;3.17;2.37;;;;;;;18.61;69.01;101867.47;5011470;28;20208;-70
2022/08/09 07:01:58;;;;;;;2.57;2.37;;;;;;;18.65;67.33;101858.47;5015294;28;20630;-68
2022/08/09 07:04:24;;;;;;;3.47;2.20;;;;;;;18.70;67.24;101864.44;5010145;28;20210;-69
2022/08/09 07:06:52;;;;;;;2.53;1.97;;;;;;;18.73;67.84;101858.16;5003376;28;20566;-68
2022/08/09 07:09:19;;;;;;;3.77;2.20;;;;;;;18.86;68.60;101864.69;5011839;28;20200;-68
2022/08/09 07:11:45;;;;;;;2.40;2.10;;;;;;;19.02;69.11;101872.00;5014224;28;20588;-70
2022/08/09 07:14:13;;;;;;;2.40;2.13;;;;;;;19.16;70.65;101874.91;5006525;28;20604;-67
2022/08/09 07:16:39;;;;;;;2.60;1.90;;;;;;;19.30;62.74;101890.19;5015764;28;20657;-68
2022/08/09 07:19:06;;;;;;;2.33;1.90;;;;;;;19.47;65.33;101879.75;5007708;28;20563;-67
2022/08/09 07:21:32;;;;;;;4.00;2.13;;;;;;;19.67;64.04;101891.22;5011357;28;20232;-69
2022/08/09 07:24:00;;;;;;;3.27;2.00;;;;;;;19.90;64.18;101879.63;5013695;28;20915;-68
2022/08/09 07:26:26;;;;;;;2.23;1.70;;;;;;;19.99;59.22;101892.44;5006358;28;20200;-68
2022/08/09 07:28:53;;;;;;;2.50;1.90;;;;;;;20.23;59.99;101894.91;5005011;28;20216;-67
2022/08/09 07:31:19;;;;;;;4.90;1.97;;;;;;;20.33;64.65;101882.91;5006373;28;20225;-71
2022/08/09 07:33:45;;;;;;;1.63;1.53;;;;;;;20.29;56.09;101905.19;5011568;28;21077;-67
2022/08/09 07:36:13;;;;;;;2.20;1.60;;;;;;;20.47;59.70;101900.81;5009332;28;20212;-70
2022/08/09 07:38:40;;;;;;;1.90;1.80;;;;;;;20.65;57.27;101896.47;5008015;28;20204;-67
2022/08/09 07:41:07;;;;;;;2.20;1.90;;;;;;;20.89;56.53;101905.00;5007226;28;20791;-72
2022/08/09 07:43:34;;;;;;;3.07;1.70;;;;;;;21.04;58.53;101899.91;5017131;28;20196;-70
2022/08/09 07:46:00;;;;;;;2.03;1.70;;;;;;;21.11;53.76;101906.59;5015140;28;20219;-68
2022/08/09 07:48:27;;;;;;;2.67;1.60;;;;;;;21.23;53.34;101911.28;5017211;28;20221;-68
2022/08/09 07:50:54;;;;;;;2.80;1.77;;;;;;;21.38;55.86;101905.16;5010269;28;20213;-67
2022/08/09 07:53:21;;;;;;;2.70;1.90;;;;;;;21.46;55.86;101904.81;5013971;28;20192;-71
2022/08/09 07:55:47;;;;;;;2.50;1.90;;;;;;;21.64;54.52;101902.16;5019788;28;20750;-68
2022/08/09 07:58:15;;;;;;;1.83;1.60;;;;;;;21.62;56.14;101898.69;5010762;28;20754;-68
2022/08/09 08:00:42;;;;;;;2.93;1.70;;;;;;;21.73;54.14;101905.16;5008766;28;20693;-69
2022/08/09 08:03:08;;;;;;;1.83;1.60;;;;;;;21.84;53.93;101901.09;5011419;28;20716;-69
2022/08/09 08:05:35;;;;;;;3.00;1.87;;;;;;;21.90;52.13;101906.06;5010732;28;20209;-72
2022/08/09 08:08:02;;;;;;;2.10;1.90;;;;;;;21.93;51.17;101911.19;5011090;28;20220;-69
2022/08/09 08:10:29;;;;;;;1.70;1.60;;;;;;;22.00;53.92;101899.31;5011315;28;20231;-68
2022/08/09 08:12:55;;;;;;;2.30;1.70;;;;;;;22.10;52.58;101903.19;5013078;28;20221;-70
2022/08/09 08:15:23;;;;;;;2.38;1.88;;;;;;;22.11;49.82;101902.25;5010600;28;20208;-69
2022/08/09 08:17:51;;;;;;;1.80;1.70;;;;;;;22.09;50.12;101898.84;5016880;28;20661;-70
2022/08/09 08:20:18;;;;;;;2.30;1.63;;;;;;;22.13;50.17;101902.16;5010722;28;20266;-70
2022/08/09 08:22:44;;;;;;;1.93;1.70;;;;;;;22.25;50.79;101903.28;5012003;28;20243;-69
2022/08/09 08:25:11;;;;;;;3.20;1.80;;;;;;;22.37;53.58;101893.81;5013085;28;20212;-68
2022/08/09 08:27:37;;;;;;;2.53;1.70;;;;;;;22.52;47.25;101902.72;5014796;28;20216;-68
2022/08/09 08:30:05;;;;;;;2.07;1.67;;;;;;;22.74;47.36;101903.19;5007768;28;20859;-69
2022/08/09 08:32:33;;;;;;;1.98;1.83;;;;;;;22.86;46.69;101904.31;5010638;28;20239;-69
2022/08/09 08:35:01;;;;;;;1.92;1.73;;;;;;;22.90;47.32;101900.50;4997591;28;20657;-69
2022/08/09 08:37:28;;;;;;;1.60;1.50;;;;;;;22.98;47.06;101898.28;5016314;28;20215;-69
2022/08/09 08:39:54;;;;;;;1.70;1.60;;;;;;;23.09;46.62;101904.81;5010800;28;20208;-70
2022/08/09 08:42:21;;;;;;;2.60;1.70;;;;;;;23.26;44.54;101904.66;5010028;28;20239;-68
2022/08/09 08:44:52;;;;;;;1.90;1.77;;;;;;;23.44;44.30;101903.53;5018106;28;20251;-68
2022/08/09 08:47:18;;;;;;;2.20;1.70;;;;;;;23.50;44.26;101905.00;5008352;28;20201;-70
2022/08/09 08:49:47;;;;;;;2.25;2.05;;;;;;;23.53;45.09;101894.13;5016938;28;20212;-68
2022/08/09 08:52:14;;;;;;;1.85;1.50;;;;;;;23.59;45.06;101890.28;5015161;28;20228;-68
2022/08/09 08:54:41;;;;;;;1.50;1.40;;;;;;;23.53;43.65;101899.47;5014392;28;20208;-69
2022/08/09 08:57:09;;;;;;;1.67;1.58;;;;;;;23.65;43.62;101900.53;5012580;28;20914;-68
2022/08/09 08:59:35;;;;;;;1.40;1.30;;;;;;;23.81;44.51;101897.81;5016518;28;20212;-69
2022/08/09 09:02:04;;;;;;;1.70;1.60;;;;;;;23.97;46.70;101887.06;5008835;28;20315;-69
2022/08/09 09:04:32;;;;;;;1.73;1.50;;;;;;;24.06;43.05;101897.13;5011328;28;20576;-69
2022/08/09 09:07:07;;;;;;;2.00;1.20;;;;;;;24.06;41.35;101896.28;5014121;28;20204;-69
2022/08/09 09:09:36;;;;;;;1.65;1.20;;;;;;;24.26;41.42;101900.34;5015420;28;20192;-68
2022/08/09 09:12:04;;;;;;;2.45;1.35;;;;;;;24.31;40.30;101903.53;5007179;28;20228;-70
2022/08/09 09:14:31;;;;;;;2.95;1.33;;;;;;;24.34;40.32;101903.34;5018416;28;20200;-68
2022/08/09 09:16:59;;;;;;;0.98;0.98;;;;;;;24.38;40.00;101907.56;5011172;28;20212;-69
2022/08/09 09:19:26;;;;;;;1.10;1.00;;;;;;;24.26;38.26;101911.00;5009042;28;20744;-69
2022/08/09 09:21:57;;;;;;;1.20;1.10;;;;;;;24.43;39.16;101904.56;5010033;28;20726;-69
2022/08/09 09:24:29;;;;;;;1.00;1.00;;;;;;;24.49;38.52;101914.84;5009664;28;20204;-71
2022/08/09 09:26:55;;;;;;;1.77;1.30;;;;;;;24.62;38.00;101910.44;5012345;28;20200;-69
2022/08/09 09:29:29;;;;;;;1.63;1.10;;;;;;;24.62;38.60;101899.78;5015121;28;20325;-71
2022/08/09 09:31:55;;;;;;;1.20;0.93;;;;;;;24.82;38.81;101902.94;5015486;28;20230;-69
2022/08/09 09:34:22;;;;;;;1.00;1.00;;;;;;;25.00;39.70;101903.56;5011563;28;20197;-69
2022/08/09 09:36:48;;;;;;;1.13;1.00;;;;;;;25.23;38.40;101904.66;5009416;28;20311;-71
2022/08/09 09:39:17;;;;;;;1.00;1.00;;;;;;;25.26;38.13;101905.34;5010299;28;20598;-69
2022/08/09 09:41:45;;;;;;;1.27;1.17;;;;;;;25.26;37.97;101892.00;5008636;28;20231;-69
2022/08/09 09:44:13;;;;;;;0.98;0.95;;;;;;;25.37;37.47;101909.09;5008470;28;20204;-68
2022/08/09 09:46:40;;;;;;;1.00;1.00;;;;;;;25.24;36.58;101898.34;5010867;28;20271;-70
2022/08/09 09:49:09;;;;;;;1.30;1.20;;;;;;;25.34;38.03;101894.13;5013095;28;20239;-68
2022/08/09 09:51:37;;;;;;;2.65;1.20;;;;;;;25.45;38.18;101891.59;5012760;28;20310;-71
2022/08/09 09:54:06;;;;;;;1.05;0.90;;;;;;;25.58;37.45;101888.06;5005321;28;20200;-70
2022/08/09 09:56:34;;;;;;;1.38;1.20;;;;;;;25.63;38.02;101878.75;5006404;28;20196;-70
2022/08/09 09:59:02;;;;;;;2.00;1.20;;;;;;;25.67;38.96;101876.72;4999562;28;20658;-70
2022/08/09 10:01:28;;;;;;;1.15;1.00;;;;;;;25.70;36.59;101889.88;5016674;28;20226;-70
2022/08/09 10:03:55;;;;;;;1.35;1.13;;;;;;;25.62;35.33;101887.72;5016544;28;20254;-68
2022/08/09 10:06:22;;;;;;;1.38;1.10;;;;;;;25.54;35.54;101886.56;5020715;28;20269;-68
2022/08/09 10:08:50;;;;;;;2.15;1.30;;;;;;;25.46;35.95;101876.41;5029150;28;20216;-74
2022/08/09 10:11:18;;;;;;;2.67;1.20;;;;;;;25.32;36.38;101875.53;5010140;28;20228;-72
2022/08/09 10:13:46;;;;;;;1.63;1.30;;;;;;;25.53;37.04;101871.50;5014512;28;20201;-69
2022/08/09 10:16:14;;;;;;;1.25;1.10;;;;;;;25.56;36.64;101872.16;5019049;28;20202;-68
2022/08/09 10:18:49;;;;;;;1.75;1.63;;;;;;;25.59;35.61;101873.72;5011039;28;20206;-69
2022/08/09 10:21:16;;;;;;;1.98;1.60;;;;;;;25.62;36.19;101874.38;5014036;28;20228;-71
2022/08/09 10:23:43;;;;;;;1.60;1.25;;;;;;;25.79;37.53;101873.19;5011130;28;20235;-69
2022/08/09 10:26:10;;;;;;;1.40;1.30;;;;;;;25.70;36.49;101873.84;5005073;28;20207;-69
2022/08/09 10:28:38;;;;;;;1.20;1.02;;;;;;;25.63;35.31;101877.91;5000027;28;20216;-69
2022/08/09 10:31:07;;;;;;;1.30;1.20;;;;;;;25.75;36.45;101866.38;5005887;28;20207;-69
2022/08/09 10:33:36;;;;;;;1.42;1.33;;;;;;;25.89;36.29;101874.25;5004517;28;20198;-70
2022/08/09 10:36:04;;;;;;;1.80;1.45;;;;;;;26.06;38.26;101869.53;5007670;28;20204;-69
2022/08/09 10:38:31;;;;;;;1.80;1.42;;;;;;;26.13;37.39;101865.44;5006991;28;20208;-70
2022/08/09 10:40:58;;;;;;;1.85;1.60;;;;;;;26.22;37.42;101861.25;5011768;28;20210;-68
2022/08/09 10:43:24;;;;;;;3.38;1.45;;;;;;;26.29;38.67;101856.31;5010831;28;20206;-72
2022/08/09 10:45:50;;;;;;;2.25;1.90;;;;;;;26.45;36.10;101862.22;5008649;28;20209;-70
2022/08/09 10:48:24;;;;;;;1.77;1.60;;;;;;;26.57;36.36;101865.81;5005732;28;20214;-70
2022/08/09 10:51:10;;;;;;;2.05;1.60;;;;;;;26.64;35.68;101859.06;5009228;28;20292;-72
2022/08/09 10:53:51;;;;;;;2.47;1.73;;;;;;;26.89;37.98;101851.88;5017048;28;20220;-69
2022/08/09 10:56:21;;;;;;;3.13;1.92;;;;;;;27.01;34.89;101856.28;5005027;28;20565;-69
2022/08/09 10:58:48;;;;;;;1.70;1.40;;;;;;;26.93;33.80;101854.19;5016962;28;20197;-70
2022/08/09 11:01:38;;;;;;;1.70;1.48;;;;;;;27.15;35.86;101855.22;5013165;28;20219;-68
2022/08/09 11:04:13;;;;;;;1.88;1.60;;;;;;;27.39;34.56;101852.50;5015787;28;20212;-69
2022/08/09 11:06:42;;;;;;;2.20;1.92;;;;;;;27.71;34.92;101854.44;5014032;28;20261;-70
2022/08/09 11:09:10;;;;;;;3.25;2.10;;;;;;;27.75;33.02;101856.75;5008380;28;20225;-68
2022/08/09 11:12:09;;;;;;;3.78;2.13;;;;;;;27.90;32.45;101864.56;5019136;28;20227;-69
2022/08/09 11:14:40;;;;;;;3.85;1.88;;;;;;;27.95;32.49;101857.03;5005558;28;20201;-69
2022/08/09 11:17:49;;;;;;;2.95;1.88;;;;;;;27.91;32.20;101851.03;5006757;28;20664;-69
2022/08/09 11:20:18;;;;;;;1.67;1.58;;;;;;;27.82;34.00;101849.06;5009014;28;20299;-69
2022/08/09 11:22:59;;;;;;;1.67;1.50;;;;;;;27.62;33.30;101850.69;5009196;28;20230;-71
2022/08/09 11:25:38;;;;;;;3.05;1.95;;;;;;;27.59;32.47;101853.59;5016375;28;20408;-69
2022/08/09 11:28:37;;;;;;;2.47;1.63;;;;;;;27.71;34.40;101841.91;5009662;28;20204;-71
2022/08/09 11:31:40;;;;;;;2.20;1.73;;;;;;;27.94;35.37;101836.56;5009368;28;20208;-68